PIK weather

Glasgow Prestwick Airport
Glasgow, Scotland, United Kingdom

Public forecast

Using degrees Celsius for public forecast. Weather courtesy of forecast.io.

Current aviation weather report (METAR) for Glasgow Prestwick Airport

Retrieved 2020/06/06 01:50 UTC (13 minutes ago):

EGPK 060150Z 31013KT 9999 -SHRA BKN013 10/08 Q0991

Aviation forecast (TAF) for Glasgow Prestwick Airport

Retrieved 2020-06-06 00:00 UTC (2 hours ago):

TAF EGPK 052254Z 0600/0624 30019KT 9999 FEW012 SCT030 TEMPO 0600/0605 6000 RA BKN014 TEMPO 0600/0602 31023G35KT BECMG 0602/0605 34009KT PROB30 TEMPO 0616/0624 33015G25KT